sensor_id;sensor_type;location;lat;lon;timestamp;temperature;humidity
51982;DHT22;37998;53.416;6.730;2022-08-20T00:00:15;19.60;99.90
51982;DHT22;37998;53.416;6.730;2022-08-20T00:02:44;19.60;99.90
51982;DHT22;37998;53.416;6.730;2022-08-20T00:05:10;19.50;99.90
51982;DHT22;37998;53.416;6.730;2022-08-20T00:07:36;19.50;99.90
51982;DHT22;37998;53.416;6.730;2022-08-20T00:10:04;19.50;99.90
51982;DHT22;37998;53.416;6.730;2022-08-20T00:12:32;19.50;99.90
51982;DHT22;37998;53.416;6.730;2022-08-20T00:14:57;19.50;99.90
51982;DHT22;37998;53.416;6.730;2022-08-20T00:17:23;19.50;99.90
51982;DHT22;37998;53.416;6.730;2022-08-20T00:19:49;19.50;99.90
51982;DHT22;37998;53.416;6.730;2022-08-20T00:22:15;19.50;99.90
51982;DHT22;37998;53.416;6.730;2022-08-20T00:24:40;19.50;99.90
51982;DHT22;37998;53.416;6.730;2022-08-20T00:27:06;19.50;99.90
51982;DHT22;37998;53.416;6.730;2022-08-20T00:29:32;19.50;99.90
51982;DHT22;37998;53.416;6.730;2022-08-20T00:31:57;19.50;99.90
51982;DHT22;37998;53.416;6.730;2022-08-20T00:34:23;19.50;99.90
51982;DHT22;37998;53.416;6.730;2022-08-20T00:36:49;19.50;99.90
51982;DHT22;37998;53.416;6.730;2022-08-20T00:39:15;19.60;99.90
51982;DHT22;37998;53.416;6.730;2022-08-20T00:41:40;19.60;99.90
51982;DHT22;37998;53.416;6.730;2022-08-20T00:44:17;19.50;99.90
51982;DHT22;37998;53.416;6.730;2022-08-20T00:46:44;19.50;99.90
51982;DHT22;37998;53.416;6.730;2022-08-20T00:49:22;19.60;99.90
51982;DHT22;37998;53.416;6.730;2022-08-20T00:51:55;19.50;99.90
51982;DHT22;37998;53.416;6.730;2022-08-20T00:54:34;19.50;99.90
51982;DHT22;37998;53.416;6.730;2022-08-20T00:57:09;19.50;99.90
51982;DHT22;37998;53.416;6.730;2022-08-20T00:59:37;19.40;99.90
51982;DHT22;37998;53.416;6.730;2022-08-20T01:02:08;19.50;99.90
51982;DHT22;37998;53.416;6.730;2022-08-20T01:04:36;19.50;99.90
51982;DHT22;37998;53.416;6.730;2022-08-20T01:07:04;19.50;99.90
51982;DHT22;37998;53.416;6.730;2022-08-20T01:09:30;19.50;99.90
51982;DHT22;37998;53.416;6.730;2022-08-20T01:11:56;19.40;99.90
51982;DHT22;37998;53.416;6.730;2022-08-20T01:14:22;19.50;99.90
51982;DHT22;37998;53.416;6.730;2022-08-20T01:17:06;19.50;99.90
51982;DHT22;37998;53.416;6.730;2022-08-20T01:19:39;19.50;99.90
51982;DHT22;37998;53.416;6.730;2022-08-20T01:22:08;19.50;99.90
51982;DHT22;37998;53.416;6.730;2022-08-20T01:25:18;19.40;99.90
51982;DHT22;37998;53.416;6.730;2022-08-20T01:27:45;19.40;99.90
51982;DHT22;37998;53.416;6.730;2022-08-20T01:30:13;19.40;99.90
51982;DHT22;37998;53.416;6.730;2022-08-20T01:32:38;19.30;99.90
51982;DHT22;37998;53.416;6.730;2022-08-20T01:35:04;19.30;99.90
51982;DHT22;37998;53.416;6.730;2022-08-20T01:37:31;19.30;99.90
51982;DHT22;37998;53.416;6.730;2022-08-20T01:39:57;19.20;99.90
51982;DHT22;37998;53.416;6.730;2022-08-20T01:42:37;19.20;99.90
51982;DHT22;37998;53.416;6.730;2022-08-20T01:45:05;19.20;99.90
51982;DHT22;37998;53.416;6.730;2022-08-20T01:47:31;19.10;99.90
51982;DHT22;37998;53.416;6.730;2022-08-20T01:50:00;19.10;99.90
51982;DHT22;37998;53.416;6.730;2022-08-20T01:52:40;19.10;99.90
51982;DHT22;37998;53.416;6.730;2022-08-20T01:55:08;19.10;99.90
51982;DHT22;37998;53.416;6.730;2022-08-20T01:57:34;19.00;99.90
51982;DHT22;37998;53.416;6.730;2022-08-20T02:00:05;19.10;99.90
51982;DHT22;37998;53.416;6.730;2022-08-20T02:02:33;19.10;99.90
51982;DHT22;37998;53.416;6.730;2022-08-20T02:04:58;19.10;99.90
51982;DHT22;37998;53.416;6.730;2022-08-20T02:07:25;19.00;99.90
51982;DHT22;37998;53.416;6.730;2022-08-20T02:09:51;19.00;99.90
51982;DHT22;37998;53.416;6.730;2022-08-20T02:12:17;19.00;99.90
51982;DHT22;37998;53.416;6.730;2022-08-20T02:14:46;18.90;99.90
51982;DHT22;37998;53.416;6.730;2022-08-20T02:17:13;18.80;99.90
51982;DHT22;37998;53.416;6.730;2022-08-20T02:19:45;18.80;99.90
51982;DHT22;37998;53.416;6.730;2022-08-20T02:22:23;18.80;99.90
51982;DHT22;37998;53.416;6.730;2022-08-20T02:24:52;18.70;99.90
51982;DHT22;37998;53.416;6.730;2022-08-20T02:27:18;18.60;99.90
51982;DHT22;37998;53.416;6.730;2022-08-20T02:29:48;18.60;99.90
51982;DHT22;37998;53.416;6.730;2022-08-20T02:32:14;18.50;99.90
51982;DHT22;37998;53.416;6.730;2022-08-20T02:34:40;18.50;99.90
51982;DHT22;37998;53.416;6.730;2022-08-20T02:37:06;18.50;99.90
51982;DHT22;37998;53.416;6.730;2022-08-20T02:39:32;18.40;99.90
51982;DHT22;37998;53.416;6.730;2022-08-20T02:41:59;18.30;99.90
51982;DHT22;37998;53.416;6.730;2022-08-20T02:44:27;18.30;99.90
51982;DHT22;37998;53.416;6.730;2022-08-20T02:46:52;18.20;99.90
51982;DHT22;37998;53.416;6.730;2022-08-20T02:49:18;18.20;99.90
51982;DHT22;37998;53.416;6.730;2022-08-20T02:51:45;18.10;99.90
51982;DHT22;37998;53.416;6.730;2022-08-20T02:54:11;18.10;99.90
51982;DHT22;37998;53.416;6.730;2022-08-20T02:56:37;18.10;99.90
51982;DHT22;37998;53.416;6.730;2022-08-20T02:59:03;18.00;99.90
51982;DHT22;37998;53.416;6.730;2022-08-20T03:01:29;18.00;99.90
51982;DHT22;37998;53.416;6.730;2022-08-20T03:03:56;18.00;99.90
51982;DHT22;37998;53.416;6.730;2022-08-20T03:06:24;18.00;99.90
51982;DHT22;37998;53.416;6.730;2022-08-20T03:08:50;17.90;99.90
51982;DHT22;37998;53.416;6.730;2022-08-20T03:11:17;17.90;99.90
51982;DHT22;37998;53.416;6.730;2022-08-20T03:13:43;17.90;99.90
51982;DHT22;37998;53.416;6.730;2022-08-20T03:16:09;17.90;99.90
51982;DHT22;37998;53.416;6.730;2022-08-20T03:18:42;17.80;99.90
51982;DHT22;37998;53.416;6.730;2022-08-20T03:21:09;17.80;99.90
51982;DHT22;37998;53.416;6.730;2022-08-20T03:23:35;17.80;99.90
51982;DHT22;37998;53.416;6.730;2022-08-20T03:26:05;17.80;99.90
51982;DHT22;37998;53.416;6.730;2022-08-20T03:28:33;17.70;99.90
51982;DHT22;37998;53.416;6.730;2022-08-20T03:30:59;17.70;99.90
51982;DHT22;37998;53.416;6.730;2022-08-20T03:33:26;17.70;99.90
51982;DHT22;37998;53.416;6.730;2022-08-20T03:35:52;17.60;99.90
51982;DHT22;37998;53.416;6.730;2022-08-20T03:38:21;17.60;99.90
51982;DHT22;37998;53.416;6.730;2022-08-20T03:40:48;17.60;99.90
51982;DHT22;37998;53.416;6.730;2022-08-20T03:43:14;17.60;99.90
51982;DHT22;37998;53.416;6.730;2022-08-20T03:45:41;17.60;99.90
51982;DHT22;37998;53.416;6.730;2022-08-20T03:48:11;17.60;99.90
51982;DHT22;37998;53.416;6.730;2022-08-20T03:50:38;17.60;99.90
51982;DHT22;37998;53.416;6.730;2022-08-20T03:53:06;17.50;99.90
51982;DHT22;37998;53.416;6.730;2022-08-20T03:55:32;17.50;99.90
51982;DHT22;37998;53.416;6.730;2022-08-20T03:58:00;17.60;99.90
51982;DHT22;37998;53.416;6.730;2022-08-20T04:00:44;17.60;99.90
51982;DHT22;37998;53.416;6.730;2022-08-20T04:03:11;17.60;99.90
51982;DHT22;37998;53.416;6.730;2022-08-20T04:05:38;17.70;99.90
51982;DHT22;37998;53.416;6.730;2022-08-20T04:08:08;17.70;99.90
51982;DHT22;37998;53.416;6.730;2022-08-20T04:10:34;17.70;99.90
51982;DHT22;37998;53.416;6.730;2022-08-20T04:13:00;17.80;99.90
51982;DHT22;37998;53.416;6.730;2022-08-20T04:15:26;17.70;99.90
51982;DHT22;37998;53.416;6.730;2022-08-20T04:17:52;17.80;99.90
51982;DHT22;37998;53.416;6.730;2022-08-20T04:20:22;17.80;99.90
51982;DHT22;37998;53.416;6.730;2022-08-20T04:22:53;17.70;99.90
51982;DHT22;37998;53.416;6.730;2022-08-20T04:25:20;17.80;99.90
51982;DHT22;37998;53.416;6.730;2022-08-20T04:27:47;17.70;99.90
51982;DHT22;37998;53.416;6.730;2022-08-20T04:30:17;17.70;99.90
51982;DHT22;37998;53.416;6.730;2022-08-20T04:32:43;17.60;99.90
51982;DHT22;37998;53.416;6.730;2022-08-20T04:35:12;17.60;99.90
51982;DHT22;37998;53.416;6.730;2022-08-20T04:37:40;17.60;99.90
51982;DHT22;37998;53.416;6.730;2022-08-20T04:40:09;17.50;99.90
51982;DHT22;37998;53.416;6.730;2022-08-20T04:42:55;17.60;99.90
51982;DHT22;37998;53.416;6.730;2022-08-20T04:45:20;17.60;99.90
51982;DHT22;37998;53.416;6.730;2022-08-20T04:47:47;17.60;99.90
51982;DHT22;37998;53.416;6.730;2022-08-20T04:50:13;17.60;99.90
51982;DHT22;37998;53.416;6.730;2022-08-20T04:52:39;17.60;99.90
51982;DHT22;37998;53.416;6.730;2022-08-20T04:55:05;17.60;99.90
51982;DHT22;37998;53.416;6.730;2022-08-20T04:57:32;17.50;99.90
51982;DHT22;37998;53.416;6.730;2022-08-20T04:59:58;17.50;99.90
51982;DHT22;37998;53.416;6.730;2022-08-20T05:02:23;17.50;99.90
51982;DHT22;37998;53.416;6.730;2022-08-20T05:04:49;17.50;99.90
51982;DHT22;37998;53.416;6.730;2022-08-20T05:07:16;17.50;99.90
51982;DHT22;37998;53.416;6.730;2022-08-20T05:09:45;17.60;99.90
51982;DHT22;37998;53.416;6.730;2022-08-20T05:12:11;17.60;99.90
51982;DHT22;37998;53.416;6.730;2022-08-20T05:14:40;17.60;99.90
51982;DHT22;37998;53.416;6.730;2022-08-20T05:17:06;17.60;99.90
51982;DHT22;37998;53.416;6.730;2022-08-20T05:19:33;17.60;99.90
51982;DHT22;37998;53.416;6.730;2022-08-20T05:22:00;17.70;99.90
51982;DHT22;37998;53.416;6.730;2022-08-20T05:24:26;17.80;99.90
51982;DHT22;37998;53.416;6.730;2022-08-20T05:26:52;17.80;99.90
51982;DHT22;37998;53.416;6.730;2022-08-20T05:29:19;17.80;99.90
51982;DHT22;37998;53.416;6.730;2022-08-20T05:31:47;17.80;99.90
51982;DHT22;37998;53.416;6.730;2022-08-20T05:34:13;17.70;99.90
51982;DHT22;37998;53.416;6.730;2022-08-20T05:36:42;17.80;99.90
51982;DHT22;37998;53.416;6.730;2022-08-20T05:39:09;17.90;99.90
51982;DHT22;37998;53.416;6.730;2022-08-20T05:41:36;17.90;99.90
51982;DHT22;37998;53.416;6.730;2022-08-20T05:44:03;17.90;99.90
51982;DHT22;37998;53.416;6.730;2022-08-20T05:46:30;17.90;99.90
51982;DHT22;37998;53.416;6.730;2022-08-20T05:48:56;17.90;99.90
51982;DHT22;37998;53.416;6.730;2022-08-20T05:51:22;17.80;99.90
51982;DHT22;37998;53.416;6.730;2022-08-20T05:53:47;17.90;99.90
51982;DHT22;37998;53.416;6.730;2022-08-20T05:56:13;17.90;99.90
51982;DHT22;37998;53.416;6.730;2022-08-20T05:58:39;17.90;99.90
51982;DHT22;37998;53.416;6.730;2022-08-20T06:01:04;17.90;99.90
51982;DHT22;37998;53.416;6.730;2022-08-20T06:03:30;17.90;99.90
51982;DHT22;37998;53.416;6.730;2022-08-20T06:06:14;17.90;99.90
51982;DHT22;37998;53.416;6.730;2022-08-20T06:08:40;18.00;99.90
51982;DHT22;37998;53.416;6.730;2022-08-20T06:11:06;18.00;99.90
51982;DHT22;37998;53.416;6.730;2022-08-20T06:13:32;18.00;99.90
51982;DHT22;37998;53.416;6.730;2022-08-20T06:15:59;18.10;99.90
51982;DHT22;37998;53.416;6.730;2022-08-20T06:18:25;18.10;99.90
51982;DHT22;37998;53.416;6.730;2022-08-20T06:20:50;18.20;99.90
51982;DHT22;37998;53.416;6.730;2022-08-20T06:23:17;18.20;99.90
51982;DHT22;37998;53.416;6.730;2022-08-20T06:25:43;18.30;99.90
51982;DHT22;37998;53.416;6.730;2022-08-20T06:28:09;18.30;99.90
51982;DHT22;37998;53.416;6.730;2022-08-20T06:30:35;18.40;99.90
51982;DHT22;37998;53.416;6.730;2022-08-20T06:33:01;18.50;99.90
51982;DHT22;37998;53.416;6.730;2022-08-20T06:35:26;18.50;99.90
51982;DHT22;37998;53.416;6.730;2022-08-20T06:37:52;18.60;99.90
51982;DHT22;37998;53.416;6.730;2022-08-20T06:40:24;18.60;99.90
51982;DHT22;37998;53.416;6.730;2022-08-20T06:42:50;18.70;99.90
51982;DHT22;37998;53.416;6.730;2022-08-20T06:45:19;18.70;99.90
51982;DHT22;37998;53.416;6.730;2022-08-20T06:47:46;18.80;99.90
51982;DHT22;37998;53.416;6.730;2022-08-20T06:50:18;18.90;99.90
51982;DHT22;37998;53.416;6.730;2022-08-20T06:52:44;18.90;99.90
51982;DHT22;37998;53.416;6.730;2022-08-20T06:55:13;18.90;99.90
51982;DHT22;37998;53.416;6.730;2022-08-20T06:57:39;19.00;99.90
51982;DHT22;37998;53.416;6.730;2022-08-20T07:00:08;19.10;99.90
51982;DHT22;37998;53.416;6.730;2022-08-20T07:02:34;19.20;99.90
51982;DHT22;37998;53.416;6.730;2022-08-20T07:05:01;19.20;99.90
51982;DHT22;37998;53.416;6.730;2022-08-20T07:07:26;19.30;99.90
51982;DHT22;37998;53.416;6.730;2022-08-20T07:10:00;19.30;99.90
51982;DHT22;37998;53.416;6.730;2022-08-20T07:12:26;19.40;99.90
51982;DHT22;37998;53.416;6.730;2022-08-20T07:14:52;19.40;99.90
51982;DHT22;37998;53.416;6.730;2022-08-20T07:17:17;19.50;99.90
51982;DHT22;37998;53.416;6.730;2022-08-20T07:19:43;19.50;99.90
51982;DHT22;37998;53.416;6.730;2022-08-20T07:22:09;19.60;99.90
51982;DHT22;37998;53.416;6.730;2022-08-20T07:24:37;19.70;99.90
51982;DHT22;37998;53.416;6.730;2022-08-20T07:27:02;20.60;99.90
51982;DHT22;37998;53.416;6.730;2022-08-20T07:29:29;20.40;99.90
51982;DHT22;37998;53.416;6.730;2022-08-20T07:32:14;19.90;99.90
51982;DHT22;37998;53.416;6.730;2022-08-20T07:34:58;20.00;99.90
51982;DHT22;37998;53.416;6.730;2022-08-20T07:37:24;20.20;99.90
51982;DHT22;37998;53.416;6.730;2022-08-20T07:39:50;20.20;99.90
51982;DHT22;37998;53.416;6.730;2022-08-20T07:42:16;20.30;99.90
51982;DHT22;37998;53.416;6.730;2022-08-20T07:44:42;20.40;99.90
51982;DHT22;37998;53.416;6.730;2022-08-20T07:47:08;20.50;99.90
51982;DHT22;37998;53.416;6.730;2022-08-20T07:49:37;20.60;99.90
51982;DHT22;37998;53.416;6.730;2022-08-20T07:52:04;20.70;99.90
51982;DHT22;37998;53.416;6.730;2022-08-20T07:54:29;20.70;99.90
51982;DHT22;37998;53.416;6.730;2022-08-20T07:56:59;20.80;99.90
51982;DHT22;37998;53.416;6.730;2022-08-20T07:59:27;20.90;99.90
51982;DHT22;37998;53.416;6.730;2022-08-20T08:01:53;20.90;99.90
51982;DHT22;37998;53.416;6.730;2022-08-20T08:04:19;21.00;99.90
51982;DHT22;37998;53.416;6.730;2022-08-20T08:06:44;21.00;99.90
51982;DHT22;37998;53.416;6.730;2022-08-20T08:09:12;21.00;99.90
51982;DHT22;37998;53.416;6.730;2022-08-20T08:11:42;21.00;99.90
51982;DHT22;37998;53.416;6.730;2022-08-20T08:14:10;20.90;99.90
51982;DHT22;37998;53.416;6.730;2022-08-20T08:16:36;20.80;99.90
51982;DHT22;37998;53.416;6.730;2022-08-20T08:19:04;20.70;99.90
51982;DHT22;37998;53.416;6.730;2022-08-20T08:21:31;20.70;99.90
51982;DHT22;37998;53.416;6.730;2022-08-20T08:23:57;20.90;99.90
51982;DHT22;37998;53.416;6.730;2022-08-20T08:26:22;21.10;99.70
51982;DHT22;37998;53.416;6.730;2022-08-20T08:28:48;21.40;99.50
51982;DHT22;37998;53.416;6.730;2022-08-20T08:31:14;21.80;99.10
51982;DHT22;37998;53.416;6.730;2022-08-20T08:33:41;22.20;98.60
51982;DHT22;37998;53.416;6.730;2022-08-20T08:36:12;22.30;97.80
51982;DHT22;37998;53.416;6.730;2022-08-20T08:38:40;22.50;97.50
51982;DHT22;37998;53.416;6.730;2022-08-20T08:41:39;22.60;97.40
51982;DHT22;37998;53.416;6.730;2022-08-20T08:44:06;22.60;97.00
51982;DHT22;37998;53.416;6.730;2022-08-20T08:46:44;22.50;96.70
51982;DHT22;37998;53.416;6.730;2022-08-20T08:49:21;22.40;96.00
51982;DHT22;37998;53.416;6.730;2022-08-20T08:52:06;22.30;96.80
51982;DHT22;37998;53.416;6.730;2022-08-20T08:54:34;22.10;95.90
51982;DHT22;37998;53.416;6.730;2022-08-20T08:57:00;22.10;96.80
51982;DHT22;37998;53.416;6.730;2022-08-20T08:59:28;22.10;96.50
51982;DHT22;37998;53.416;6.730;2022-08-20T09:01:56;22.10;96.20
51982;DHT22;37998;53.416;6.730;2022-08-20T09:04:35;22.20;96.30
51982;DHT22;37998;53.416;6.730;2022-08-20T09:07:03;22.30;95.90
51982;DHT22;37998;53.416;6.730;2022-08-20T09:09:33;22.40;96.10
51982;DHT22;37998;53.416;6.730;2022-08-20T09:12:08;22.30;95.90
51982;DHT22;37998;53.416;6.730;2022-08-20T09:14:34;22.20;96.10
51982;DHT22;37998;53.416;6.730;2022-08-20T09:17:00;22.10;96.00
51982;DHT22;37998;53.416;6.730;2022-08-20T09:19:26;21.80;96.10
51982;DHT22;37998;53.416;6.730;2022-08-20T09:21:51;21.80;96.30
51982;DHT22;37998;53.416;6.730;2022-08-20T09:24:17;21.90;95.90
51982;DHT22;37998;53.416;6.730;2022-08-20T09:26:43;22.10;95.20
51982;DHT22;37998;53.416;6.730;2022-08-20T09:29:09;22.00;95.10
51982;DHT22;37998;53.416;6.730;2022-08-20T09:31:34;22.00;95.10
51982;DHT22;37998;53.416;6.730;2022-08-20T09:34:00;22.10;95.30
51982;DHT22;37998;53.416;6.730;2022-08-20T09:36:26;22.00;95.10
51982;DHT22;37998;53.416;6.730;2022-08-20T09:38:52;22.00;95.40
51982;DHT22;37998;53.416;6.730;2022-08-20T09:41:18;22.00;95.20
51982;DHT22;37998;53.416;6.730;2022-08-20T09:43:44;22.10;95.10
51982;DHT22;37998;53.416;6.730;2022-08-20T09:46:10;22.10;95.10
51982;DHT22;37998;53.416;6.730;2022-08-20T09:48:35;22.20;95.50
51982;DHT22;37998;53.416;6.730;2022-08-20T09:51:01;22.20;95.80
51982;DHT22;37998;53.416;6.730;2022-08-20T09:53:27;22.30;95.90
51982;DHT22;37998;53.416;6.730;2022-08-20T09:55:54;22.40;95.70
51982;DHT22;37998;53.416;6.730;2022-08-20T09:58:33;22.30;95.60
51982;DHT22;37998;53.416;6.730;2022-08-20T10:01:10;22.30;95.70
51982;DHT22;37998;53.416;6.730;2022-08-20T10:03:36;22.20;95.70
51982;DHT22;37998;53.416;6.730;2022-08-20T10:06:01;22.20;95.80
51982;DHT22;37998;53.416;6.730;2022-08-20T10:08:28;22.20;95.80
51982;DHT22;37998;53.416;6.730;2022-08-20T10:10:53;22.10;96.00
51982;DHT22;37998;53.416;6.730;2022-08-20T10:13:19;22.30;96.00
51982;DHT22;37998;53.416;6.730;2022-08-20T10:15:44;22.50;95.80
51982;DHT22;37998;53.416;6.730;2022-08-20T10:18:10;22.70;95.10
51982;DHT22;37998;53.416;6.730;2022-08-20T10:20:36;22.70;94.60
51982;DHT22;37998;53.416;6.730;2022-08-20T10:23:03;22.70;95.30
51982;DHT22;37998;53.416;6.730;2022-08-20T10:25:29;22.60;94.90
51982;DHT22;37998;53.416;6.730;2022-08-20T10:27:55;22.50;94.80
51982;DHT22;37998;53.416;6.730;2022-08-20T10:30:21;22.40;94.60
51982;DHT22;37998;53.416;6.730;2022-08-20T10:32:47;22.40;94.60
51982;DHT22;37998;53.416;6.730;2022-08-20T10:35:13;22.40;94.40
51982;DHT22;37998;53.416;6.730;2022-08-20T10:37:38;22.50;94.30
51982;DHT22;37998;53.416;6.730;2022-08-20T10:40:05;22.50;94.10
51982;DHT22;37998;53.416;6.730;2022-08-20T10:42:31;22.50;94.10
51982;DHT22;37998;53.416;6.730;2022-08-20T10:44:56;22.50;94.70
51982;DHT22;37998;53.416;6.730;2022-08-20T10:47:26;22.50;94.70
51982;DHT22;37998;53.416;6.730;2022-08-20T10:49:53;22.50;94.70
51982;DHT22;37998;53.416;6.730;2022-08-20T10:52:20;22.50;95.10
51982;DHT22;37998;53.416;6.730;2022-08-20T10:54:46;22.40;95.30
51982;DHT22;37998;53.416;6.730;2022-08-20T10:57:23;22.30;95.60
51982;DHT22;37998;53.416;6.730;2022-08-20T10:59:50;22.10;95.70
51982;DHT22;37998;53.416;6.730;2022-08-20T11:02:16;22.10;96.10
51982;DHT22;37998;53.416;6.730;2022-08-20T11:04:43;22.00;96.20
51982;DHT22;37998;53.416;6.730;2022-08-20T11:07:25;22.10;96.40
51982;DHT22;37998;53.416;6.730;2022-08-20T11:09:50;22.20;96.40
51982;DHT22;37998;53.416;6.730;2022-08-20T11:12:18;22.40;95.90
51982;DHT22;37998;53.416;6.730;2022-08-20T11:14:45;22.50;95.70
51982;DHT22;37998;53.416;6.730;2022-08-20T11:17:11;22.60;95.40
51982;DHT22;37998;53.416;6.730;2022-08-20T11:19:41;22.50;95.90
51982;DHT22;37998;53.416;6.730;2022-08-20T11:22:08;22.30;95.30
51982;DHT22;37998;53.416;6.730;2022-08-20T11:24:35;22.20;95.50
51982;DHT22;37998;53.416;6.730;2022-08-20T11:27:01;22.10;95.60
51982;DHT22;37998;53.416;6.730;2022-08-20T11:29:27;22.00;95.60
51982;DHT22;37998;53.416;6.730;2022-08-20T11:31:53;22.10;95.60
51982;DHT22;37998;53.416;6.730;2022-08-20T11:34:18;22.20;95.80
51982;DHT22;37998;53.416;6.730;2022-08-20T11:36:45;22.30;95.80
51982;DHT22;37998;53.416;6.730;2022-08-20T11:39:12;22.30;95.30
51982;DHT22;37998;53.416;6.730;2022-08-20T11:41:38;22.40;95.20
51982;DHT22;37998;53.416;6.730;2022-08-20T11:44:05;22.40;95.00
51982;DHT22;37998;53.416;6.730;2022-08-20T11:46:31;22.40;95.00
51982;DHT22;37998;53.416;6.730;2022-08-20T11:49:00;22.50;95.00
51982;DHT22;37998;53.416;6.730;2022-08-20T11:51:25;22.40;95.00
51982;DHT22;37998;53.416;6.730;2022-08-20T11:53:51;21.80;95.00
51982;DHT22;37998;53.416;6.730;2022-08-20T11:56:16;22.40;95.60
51982;DHT22;37998;53.416;6.730;2022-08-20T11:58:43;22.50;95.70
51982;DHT22;37998;53.416;6.730;2022-08-20T12:01:10;22.50;95.00
51982;DHT22;37998;53.416;6.730;2022-08-20T12:03:36;22.40;94.90
51982;DHT22;37998;53.416;6.730;2022-08-20T12:06:02;22.30;94.70
51982;DHT22;37998;53.416;6.730;2022-08-20T12:08:28;22.20;94.70
51982;DHT22;37998;53.416;6.730;2022-08-20T12:10:59;22.20;94.50
51982;DHT22;37998;53.416;6.730;2022-08-20T12:13:27;21.50;94.40
51982;DHT22;37998;53.416;6.730;2022-08-20T12:15:54;22.10;94.70
51982;DHT22;37998;53.416;6.730;2022-08-20T12:18:20;22.10;94.60
51982;DHT22;37998;53.416;6.730;2022-08-20T12:20:46;22.10;94.50
51982;DHT22;37998;53.416;6.730;2022-08-20T12:23:11;22.20;94.60
51982;DHT22;37998;53.416;6.730;2022-08-20T12:25:37;22.20;94.90
51982;DHT22;37998;53.416;6.730;2022-08-20T12:28:03;22.30;95.10
51982;DHT22;37998;53.416;6.730;2022-08-20T12:30:30;22.40;94.90
51982;DHT22;37998;53.416;6.730;2022-08-20T12:32:56;22.40;94.70
51982;DHT22;37998;53.416;6.730;2022-08-20T12:35:22;22.50;93.90
51982;DHT22;37998;53.416;6.730;2022-08-20T12:37:49;22.50;93.90
51982;DHT22;37998;53.416;6.730;2022-08-20T12:40:19;22.60;94.00
51982;DHT22;37998;53.416;6.730;2022-08-20T12:42:45;22.70;93.40
51982;DHT22;37998;53.416;6.730;2022-08-20T12:45:11;22.70;93.30
51982;DHT22;37998;53.416;6.730;2022-08-20T12:47:42;22.60;93.20
51982;DHT22;37998;53.416;6.730;2022-08-20T12:50:13;22.70;93.20
51982;DHT22;37998;53.416;6.730;2022-08-20T12:52:39;22.70;92.90
51982;DHT22;37998;53.416;6.730;2022-08-20T12:55:07;22.70;92.70
51982;DHT22;37998;53.416;6.730;2022-08-20T12:57:38;22.80;92.60
51982;DHT22;37998;53.416;6.730;2022-08-20T13:02:35;23.00;93.10
51982;DHT22;37998;53.416;6.730;2022-08-20T13:05:02;23.00;93.10
51982;DHT22;37998;53.416;6.730;2022-08-20T13:07:28;23.20;92.80
51982;DHT22;37998;53.416;6.730;2022-08-20T13:09:54;23.40;93.00
51982;DHT22;37998;53.416;6.730;2022-08-20T13:12:20;23.40;92.10
51982;DHT22;37998;53.416;6.730;2022-08-20T13:14:46;23.30;92.30
51982;DHT22;37998;53.416;6.730;2022-08-20T13:17:11;23.20;92.40
51982;DHT22;37998;53.416;6.730;2022-08-20T13:19:38;23.20;92.90
51982;DHT22;37998;53.416;6.730;2022-08-20T13:22:04;23.20;92.80
51982;DHT22;37998;53.416;6.730;2022-08-20T13:24:30;23.40;92.30
51982;DHT22;37998;53.416;6.730;2022-08-20T13:27:28;23.40;91.70
51982;DHT22;37998;53.416;6.730;2022-08-20T13:29:54;23.40;90.90
51982;DHT22;37998;53.416;6.730;2022-08-20T13:32:21;23.40;91.40
51982;DHT22;37998;53.416;6.730;2022-08-20T13:34:48;23.50;91.70
51982;DHT22;37998;53.416;6.730;2022-08-20T13:37:26;23.40;91.90
51982;DHT22;37998;53.416;6.730;2022-08-20T13:39:54;23.70;92.00
51982;DHT22;37998;53.416;6.730;2022-08-20T13:42:20;23.80;92.00
51982;DHT22;37998;53.416;6.730;2022-08-20T13:44:47;23.70;91.50
51982;DHT22;37998;53.416;6.730;2022-08-20T13:47:17;23.80;91.40
51982;DHT22;37998;53.416;6.730;2022-08-20T13:49:44;23.80;91.60
51982;DHT22;37998;53.416;6.730;2022-08-20T13:52:10;23.80;91.90
51982;DHT22;37998;53.416;6.730;2022-08-20T13:54:37;23.70;91.70
51982;DHT22;37998;53.416;6.730;2022-08-20T13:57:11;23.60;91.70
51982;DHT22;37998;53.416;6.730;2022-08-20T13:59:39;23.40;92.00
51982;DHT22;37998;53.416;6.730;2022-08-20T14:02:06;23.30;92.00
51982;DHT22;37998;53.416;6.730;2022-08-20T14:04:33;23.20;91.90
51982;DHT22;37998;53.416;6.730;2022-08-20T14:07:17;23.10;91.90
51982;DHT22;37998;53.416;6.730;2022-08-20T14:09:46;23.00;92.20
51982;DHT22;37998;53.416;6.730;2022-08-20T14:12:13;22.90;92.40
51982;DHT22;37998;53.416;6.730;2022-08-20T14:14:40;22.80;92.60
51982;DHT22;37998;53.416;6.730;2022-08-20T14:17:16;22.80;92.80
51982;DHT22;37998;53.416;6.730;2022-08-20T14:19:43;22.70;92.40
51982;DHT22;37998;53.416;6.730;2022-08-20T14:22:09;22.80;92.30
51982;DHT22;37998;53.416;6.730;2022-08-20T14:24:34;22.80;92.30
51982;DHT22;37998;53.416;6.730;2022-08-20T14:27:02;22.70;91.80
51982;DHT22;37998;53.416;6.730;2022-08-20T14:29:35;22.80;91.60
51982;DHT22;37998;53.416;6.730;2022-08-20T14:32:01;22.80;91.90
51982;DHT22;37998;53.416;6.730;2022-08-20T14:34:27;23.00;91.70
51982;DHT22;37998;53.416;6.730;2022-08-20T14:36:52;23.20;91.80
51982;DHT22;37998;53.416;6.730;2022-08-20T14:39:18;23.20;91.80
51982;DHT22;37998;53.416;6.730;2022-08-20T14:41:44;23.30;91.80
51982;DHT22;37998;53.416;6.730;2022-08-20T14:44:09;23.40;91.50
51982;DHT22;37998;53.416;6.730;2022-08-20T14:46:35;23.50;90.90
51982;DHT22;37998;53.416;6.730;2022-08-20T14:49:00;23.60;90.90
51982;DHT22;37998;53.416;6.730;2022-08-20T14:51:26;23.60;90.90
51982;DHT22;37998;53.416;6.730;2022-08-20T14:53:51;23.70;90.30
51982;DHT22;37998;53.416;6.730;2022-08-20T14:56:17;23.70;90.10
51982;DHT22;37998;53.416;6.730;2022-08-20T14:58:43;23.70;90.20
51982;DHT22;37998;53.416;6.730;2022-08-20T15:01:11;23.60;90.50
51982;DHT22;37998;53.416;6.730;2022-08-20T15:03:37;23.50;90.50
51982;DHT22;37998;53.416;6.730;2022-08-20T15:06:03;23.50;90.50
51982;DHT22;37998;53.416;6.730;2022-08-20T15:08:31;23.50;90.70
51982;DHT22;37998;53.416;6.730;2022-08-20T15:10:56;23.40;90.40
51982;DHT22;37998;53.416;6.730;2022-08-20T15:13:22;23.40;90.60
51982;DHT22;37998;53.416;6.730;2022-08-20T15:15:48;23.40;90.80
51982;DHT22;37998;53.416;6.730;2022-08-20T15:18:14;23.30;90.60
51982;DHT22;37998;53.416;6.730;2022-08-20T15:20:39;23.20;90.60
51982;DHT22;37998;53.416;6.730;2022-08-20T15:23:06;23.20;90.50
51982;DHT22;37998;53.416;6.730;2022-08-20T15:25:33;23.10;90.60
51982;DHT22;37998;53.416;6.730;2022-08-20T15:28:00;23.00;90.50
51982;DHT22;37998;53.416;6.730;2022-08-20T15:30:27;23.00;90.60
51982;DHT22;37998;53.416;6.730;2022-08-20T15:32:53;23.00;90.70
51982;DHT22;37998;53.416;6.730;2022-08-20T15:35:21;23.00;90.70